createdAt,value
2022-11-16T00:00:05.659Z,946.1
2022-11-16T00:01:02.426Z,946.11
2022-11-16T00:02:04.443Z,946.14
2022-11-16T00:03:06.453Z,946.13
2022-11-16T00:04:08.421Z,946.1
2022-11-16T00:05:11.458Z,946.09
2022-11-16T00:06:13.428Z,946.06
2022-11-16T00:07:15.481Z,946.06
2022-11-16T00:08:17.425Z,946.02
2022-11-16T00:09:19.446Z,946.04
2022-11-16T00:10:21.442Z,946
2022-11-16T00:11:24.434Z,946.03
2022-11-16T00:13:31.470Z,946.01
2022-11-16T00:14:33.440Z,946.02
2022-11-16T00:15:35.428Z,946.03
2022-11-16T00:16:37.434Z,946.02
2022-11-16T00:17:39.427Z,945.98
2022-11-16T00:18:41.435Z,945.97
2022-11-16T00:20:24.024Z,945.95
2022-11-16T00:21:47.435Z,945.98
2022-11-16T00:22:49.427Z,945.96
2022-11-16T00:24:24.022Z,945.98
2022-11-16T00:25:55.465Z,946.01
2022-11-16T00:26:57.439Z,946.02
2022-11-16T00:27:59.439Z,946.04
2022-11-16T00:29:01.472Z,946.07
2022-11-16T00:30:03.454Z,946.07
2022-11-16T00:31:05.480Z,946.05
2022-11-16T00:32:07.440Z,946.01
2022-11-16T00:33:09.440Z,946.01
2022-11-16T00:34:11.439Z,945.97
2022-11-16T00:35:13.446Z,946.01
2022-11-16T00:36:15.493Z,945.97
2022-11-16T00:37:17.448Z,945.95
2022-11-16T00:38:19.448Z,945.95
2022-11-16T00:39:22.443Z,945.96
2022-11-16T00:40:24.558Z,945.94
2022-11-16T00:41:26.490Z,945.93
2022-11-16T00:42:28.472Z,945.92
2022-11-16T00:43:32.442Z,945.93
2022-11-16T00:44:34.485Z,945.94
2022-11-16T00:45:36.458Z,945.92
2022-11-16T00:46:38.651Z,945.97
2022-11-16T00:47:40.459Z,945.94
2022-11-16T00:48:42.452Z,946
2022-11-16T00:49:44.452Z,945.97
2022-11-16T00:50:46.453Z,945.98
2022-11-16T00:51:48.501Z,945.97
2022-11-16T00:52:50.463Z,945.95
2022-11-16T00:53:52.457Z,945.95
2022-11-16T00:54:54.454Z,945.89
2022-11-16T00:55:56.457Z,945.93
2022-11-16T00:56:58.472Z,945.87
2022-11-16T00:58:00.492Z,945.92
2022-11-16T00:59:02.463Z,945.85
2022-11-16T01:00:04.516Z,945.85
2022-11-16T01:01:06.610Z,945.85
2022-11-16T01:02:08.458Z,945.81
2022-11-16T01:03:10.505Z,945.82
2022-11-16T01:04:12.460Z,945.74
2022-11-16T01:05:14.491Z,945.72
2022-11-16T01:06:16.473Z,945.72
2022-11-16T01:07:18.528Z,945.67
2022-11-16T01:08:20.463Z,945.65
2022-11-16T01:09:22.464Z,945.64
2022-11-16T01:10:24.578Z,945.62
2022-11-16T01:11:26.499Z,945.61
2022-11-16T01:12:28.476Z,945.66
2022-11-16T01:13:32.469Z,945.63
2022-11-16T01:14:34.467Z,945.61
2022-11-16T01:15:36.472Z,945.61
2022-11-16T01:16:38.483Z,945.54
2022-11-16T01:17:40.470Z,945.54
2022-11-16T01:18:42.477Z,945.5
2022-11-16T01:19:44.472Z,945.49
2022-11-16T01:20:46.475Z,945.44
2022-11-16T01:21:48.549Z,945.42
2022-11-16T01:22:50.477Z,945.42
2022-11-16T01:23:52.485Z,945.42
2022-11-16T01:24:54.486Z,945.38
2022-11-16T01:25:56.476Z,945.36
2022-11-16T01:26:58.524Z,945.41
2022-11-16T01:28:00.479Z,945.42
2022-11-16T01:29:02.475Z,945.41
2022-11-16T01:30:04.483Z,945.43
2022-11-16T01:31:06.493Z,945.42
2022-11-16T01:32:08.488Z,945.44
2022-11-16T01:33:10.488Z,945.45
2022-11-16T01:34:12.492Z,945.47
2022-11-16T01:35:14.488Z,945.47
2022-11-16T01:36:16.483Z,945.45
2022-11-16T01:37:18.504Z,945.43
2022-11-16T01:38:20.484Z,945.46
2022-11-16T01:39:22.508Z,945.43
2022-11-16T01:40:24.589Z,945.35
2022-11-16T01:41:26.483Z,945.36
2022-11-16T01:42:28.502Z,945.36
2022-11-16T01:43:32.490Z,945.35
2022-11-16T01:44:34.497Z,945.35
2022-11-16T01:45:36.483Z,945.33
2022-11-16T01:46:38.504Z,945.31
2022-11-16T01:47:40.493Z,945.29
2022-11-16T01:48:42.542Z,945.28
2022-11-16T01:49:44.505Z,945.24
2022-11-16T01:50:46.495Z,945.25
2022-11-16T01:51:48.539Z,945.21
2022-11-16T01:52:50.501Z,945.2
2022-11-16T01:53:52.536Z,945.17
2022-11-16T01:54:54.488Z,945.18
2022-11-16T01:55:56.533Z,945.13
2022-11-16T01:56:58.501Z,945.11
2022-11-16T01:58:00.495Z,945.09
2022-11-16T01:59:02.499Z,945.08
2022-11-16T02:00:05.516Z,945.06
2022-11-16T02:01:07.662Z,945.06
2022-11-16T02:02:09.511Z,945.02
2022-11-16T02:03:11.499Z,945.02
2022-11-16T02:04:13.502Z,944.99
2022-11-16T02:05:15.531Z,944.97
2022-11-16T02:06:17.521Z,944.95
2022-11-16T02:07:19.574Z,944.96
2022-11-16T02:08:21.500Z,944.99
2022-11-16T02:09:23.505Z,944.99
2022-11-16T02:10:25.507Z,944.97
2022-11-16T02:11:28.540Z,944.99
2022-11-16T02:12:31.512Z,945
2022-11-16T02:13:33.503Z,944.96
2022-11-16T02:14:35.511Z,944.94
2022-11-16T02:15:37.519Z,944.93
2022-11-16T02:16:39.511Z,944.91
2022-11-16T02:17:41.526Z,944.89
2022-11-16T02:18:43.506Z,944.91
2022-11-16T02:19:45.522Z,944.94
2022-11-16T02:20:47.511Z,944.95
2022-11-16T02:21:49.549Z,944.96
2022-11-16T02:22:51.510Z,944.99
2022-11-16T02:23:53.567Z,945.03
2022-11-16T02:24:55.504Z,945.03
2022-11-16T02:25:57.518Z,945.03
2022-11-16T02:26:59.552Z,945.01
2022-11-16T02:28:01.514Z,945
2022-11-16T02:29:03.524Z,945
2022-11-16T02:30:06.523Z,944.97
2022-11-16T02:31:08.522Z,944.98
2022-11-16T02:32:10.553Z,944.91
2022-11-16T02:33:12.515Z,944.91
2022-11-16T02:34:14.536Z,944.91
2022-11-16T02:35:16.511Z,944.91
2022-11-16T02:36:18.523Z,944.87
2022-11-16T02:37:21.557Z,944.85
2022-11-16T02:38:23.523Z,944.87
2022-11-16T02:39:25.612Z,944.81
2022-11-16T02:40:28.534Z,944.84
2022-11-16T02:41:31.522Z,944.83
2022-11-16T02:42:33.552Z,944.78
2022-11-16T02:43:35.525Z,944.79
2022-11-16T02:44:37.565Z,944.75
2022-11-16T02:45:39.521Z,944.75
2022-11-16T02:46:41.531Z,944.74
2022-11-16T02:47:44.530Z,944.76
2022-11-16T02:48:46.534Z,944.76
2022-11-16T02:49:48.560Z,944.75
2022-11-16T02:50:50.535Z,944.77
2022-11-16T02:51:53.580Z,944.78
2022-11-16T02:52:56.536Z,944.77
2022-11-16T02:53:58.540Z,944.76
2022-11-16T02:55:00.581Z,944.74
2022-11-16T02:56:02.543Z,944.71
2022-11-16T02:57:04.588Z,944.71
2022-11-16T02:58:06.529Z,944.68
2022-11-16T02:59:08.532Z,944.65
2022-11-16T03:01:35.139Z,944.57
2022-11-16T03:14:56.292Z,944.55
2022-11-16T03:14:56.646Z,944.51
2022-11-16T03:15:36.390Z,944.54
2022-11-16T03:16:36.350Z,944.57
2022-11-16T03:17:36.350Z,944.55
2022-11-16T03:18:36.650Z,944.54
2022-11-16T03:19:36.343Z,944.52
2022-11-16T03:20:36.452Z,944.53
2022-11-16T03:23:51.359Z,944.52
2022-11-16T03:26:36.523Z,944.48
2022-11-16T03:27:37.273Z,944.52
2022-11-16T03:29:50.044Z,944.49
2022-11-16T03:31:09.314Z,944.53
2022-11-16T03:32:09.269Z,944.5
2022-11-16T03:32:59.359Z,944.53
2022-11-16T03:34:01.186Z,944.53
2022-11-16T03:35:15.461Z,944.52
2022-11-16T03:37:07.313Z,944.54
2022-11-16T03:40:13.182Z,944.53
2022-11-16T03:42:18.773Z,944.51
2022-11-16T03:43:36.429Z,944.5
2022-11-16T03:44:36.406Z,944.52
2022-11-16T03:46:27.626Z,944.51
2022-11-16T03:47:29.628Z,944.51
2022-11-16T03:48:32.191Z,944.5
2022-11-16T03:50:36.391Z,944.54
2022-11-16T03:51:38.368Z,944.55
2022-11-16T03:52:40.369Z,944.51
2022-11-16T03:53:57.295Z,944.53
2022-11-16T03:55:49.793Z,944.51
2022-11-16T03:57:03.410Z,944.48
2022-11-16T03:58:08.903Z,944.44
2022-11-16T04:00:12.794Z,944.44
2022-11-16T04:02:38.036Z,944.44
2022-11-16T04:03:39.413Z,944.41
2022-11-16T04:04:41.418Z,944.43
2022-11-16T04:05:43.404Z,944.42
2022-11-16T04:06:45.434Z,944.39
2022-11-16T04:07:47.415Z,944.4
2022-11-16T04:08:50.431Z,944.43
2022-11-16T04:09:53.437Z,944.41
2022-11-16T04:10:56.413Z,944.39
2022-11-16T04:11:58.414Z,944.37
2022-11-16T04:13:00.426Z,944.38
2022-11-16T04:14:06.666Z,944.36
2022-11-16T04:15:04.449Z,944.36
2022-11-16T04:16:06.421Z,944.36
2022-11-16T04:17:08.422Z,944.33
2022-11-16T04:18:10.433Z,944.35
2022-11-16T04:19:12.423Z,944.35
2022-11-16T04:20:14.443Z,944.36
2022-11-16T04:21:16.428Z,944.38
2022-11-16T04:22:18.426Z,944.42
2022-11-16T04:23:20.429Z,944.39
2022-11-16T04:24:22.427Z,944.35
2022-11-16T04:25:24.443Z,944.4
2022-11-16T04:26:26.432Z,944.39
2022-11-16T04:27:28.435Z,944.42
2022-11-16T04:28:30.430Z,944.4
2022-11-16T04:30:34.491Z,944.38
2022-11-16T04:31:36.433Z,944.41
2022-11-16T04:32:38.438Z,944.41
2022-11-16T04:33:41.424Z,944.41
2022-11-16T04:34:43.438Z,944.38
2022-11-16T04:35:45.472Z,944.37
2022-11-16T04:36:47.434Z,944.45
2022-11-16T04:37:50.452Z,944.43
2022-11-16T04:38:53.431Z,944.43
2022-11-16T04:39:55.487Z,944.43
2022-11-16T04:40:57.523Z,944.42
2022-11-16T04:41:59.438Z,944.44
2022-11-16T04:43:01.439Z,944.48
2022-11-16T04:44:03.442Z,944.48
2022-11-16T04:45:05.434Z,944.46
2022-11-16T04:46:08.457Z,944.46
2022-11-16T04:47:10.439Z,944.46
2022-11-16T04:48:12.454Z,944.45
2022-11-16T04:49:14.439Z,944.42
2022-11-16T04:50:16.443Z,944.37
2022-11-16T04:51:18.450Z,944.43
2022-11-16T04:52:20.442Z,944.43
2022-11-16T04:53:22.458Z,944.39
2022-11-16T04:54:24.447Z,944.41
2022-11-16T04:55:26.449Z,944.44
2022-11-16T04:56:28.456Z,944.41
2022-11-16T04:57:30.453Z,944.41
2022-11-16T04:58:32.890Z,944.38
2022-11-16T04:59:34.455Z,944.41
2022-11-16T05:00:36.451Z,944.37
2022-11-16T05:01:38.596Z,944.33
2022-11-16T05:02:40.449Z,944.37
2022-11-16T05:03:42.449Z,944.39
2022-11-16T05:04:44.460Z,944.37
2022-11-16T05:05:46.449Z,944.38
2022-11-16T05:06:48.535Z,944.35
2022-11-16T05:07:50.477Z,944.35
2022-11-16T05:08:54.457Z,944.29
2022-11-16T05:09:56.459Z,944.3
2022-11-16T05:10:58.455Z,944.27
2022-11-16T05:12:00.498Z,944.23
2022-11-16T05:13:02.462Z,944.28
2022-11-16T05:14:04.464Z,944.24
2022-11-16T05:15:06.469Z,944.2
2022-11-16T05:16:09.458Z,944.28
2022-11-16T05:17:11.457Z,944.27
2022-11-16T05:18:13.462Z,944.29
2022-11-16T05:19:15.462Z,944.25
2022-11-16T05:20:17.461Z,944.26
2022-11-16T05:21:19.461Z,944.26
2022-11-16T05:22:39.407Z,944.27
2022-11-16T05:24:25.473Z,944.28
2022-11-16T05:28:33.871Z,944.22
2022-11-16T05:29:35.498Z,944.24
2022-11-16T05:30:37.509Z,944.21
2022-11-16T05:32:41.510Z,944.26
2022-11-16T05:36:54.583Z,944.32
2022-11-16T05:42:05.743Z,944.37
2022-11-16T05:46:34.206Z,944.41
2022-11-16T05:48:51.510Z,944.39
2022-11-16T05:51:44.695Z,944.38
2022-11-16T05:53:36.447Z,944.36
2022-11-16T06:02:45.611Z,944.47
2022-11-16T06:05:26.062Z,944.46
2022-11-16T06:07:42.833Z,944.46
2022-11-16T06:08:36.714Z,944.45
2022-11-16T06:09:36.505Z,944.46
2022-11-16T06:10:36.458Z,944.43
2022-11-16T06:11:36.479Z,944.46
2022-11-16T06:12:36.737Z,944.47
2022-11-16T06:13:38.545Z,944.45
2022-11-16T06:14:40.552Z,944.46
2022-11-16T06:15:42.556Z,944.45
2022-11-16T06:16:45.543Z,944.47
2022-11-16T06:20:36.515Z,944.51
2022-11-16T06:22:36.477Z,944.52
2022-11-16T06:23:36.467Z,944.55
2022-11-16T06:24:36.484Z,944.54
2022-11-16T06:25:36.496Z,944.56
2022-11-16T06:26:37.936Z,944.52
2022-11-16T06:27:39.927Z,944.55
2022-11-16T06:28:41.930Z,944.53
2022-11-16T06:29:43.977Z,944.57
2022-11-16T06:30:45.965Z,944.57
2022-11-16T06:31:47.941Z,944.6
2022-11-16T06:36:09.485Z,944.67
2022-11-16T06:38:01.311Z,944.64
2022-11-16T06:40:36.502Z,944.67
2022-11-16T06:42:36.569Z,944.6
2022-11-16T06:43:36.553Z,944.59
2022-11-16T06:44:36.551Z,944.65
2022-11-16T06:45:36.546Z,944.64
2022-11-16T06:46:36.524Z,944.61
2022-11-16T06:47:36.489Z,944.63
2022-11-16T06:48:36.831Z,944.63
2022-11-16T06:49:36.497Z,944.63
2022-11-16T06:50:36.508Z,944.67
2022-11-16T06:51:36.490Z,944.69
2022-11-16T06:53:36.544Z,944.7
2022-11-16T06:54:36.506Z,944.67
2022-11-16T06:55:37.314Z,944.67
2022-11-16T06:56:39.295Z,944.69
2022-11-16T06:59:36.589Z,944.71
2022-11-16T07:00:36.492Z,944.72
2022-11-16T07:03:36.530Z,944.7
2022-11-16T07:04:36.548Z,944.67
2022-11-16T07:05:36.508Z,944.7
2022-11-16T07:06:36.494Z,944.72
2022-11-16T07:07:36.673Z,944.72
2022-11-16T07:08:36.849Z,944.72
2022-11-16T07:09:36.501Z,944.75
2022-11-16T07:10:36.499Z,944.68
2022-11-16T07:11:36.515Z,944.7
2022-11-16T07:12:36.539Z,944.71
2022-11-16T07:13:36.505Z,944.68
2022-11-16T07:14:36.532Z,944.71
2022-11-16T07:15:36.548Z,944.7
2022-11-16T07:16:36.524Z,944.7
2022-11-16T07:17:38.323Z,944.69
2022-11-16T07:18:40.308Z,944.68
2022-11-16T07:19:42.308Z,944.7
2022-11-16T07:20:44.296Z,944.69
2022-11-16T07:21:46.312Z,944.7
2022-11-16T07:22:48.359Z,944.65
2022-11-16T07:23:50.350Z,944.69
2022-11-16T07:24:52.309Z,944.63
2022-11-16T07:25:54.309Z,944.66
2022-11-16T07:26:56.313Z,944.65
2022-11-16T07:27:58.315Z,944.67
2022-11-16T07:29:00.353Z,944.66
2022-11-16T07:30:02.444Z,944.65
2022-11-16T07:31:04.317Z,944.67
2022-11-16T07:32:06.323Z,944.68
2022-11-16T07:33:08.373Z,944.67
2022-11-16T07:34:10.392Z,944.71
2022-11-16T07:35:13.529Z,944.7
2022-11-16T07:36:15.357Z,944.67
2022-11-16T07:38:36.709Z,944.64
2022-11-16T07:39:36.518Z,944.6
2022-11-16T07:40:36.557Z,944.62
2022-11-16T07:41:36.523Z,944.59
2022-11-16T07:42:36.563Z,944.59
2022-11-16T07:43:38.355Z,944.61
2022-11-16T07:44:40.399Z,944.6
2022-11-16T07:45:42.393Z,944.57
2022-11-16T07:46:47.514Z,944.58
2022-11-16T07:47:46.358Z,944.6
2022-11-16T07:48:49.348Z,944.55
2022-11-16T07:49:51.388Z,944.55
2022-11-16T07:50:55.356Z,944.53
2022-11-16T07:51:57.357Z,944.54
2022-11-16T07:52:59.349Z,944.53
2022-11-16T07:54:01.356Z,944.52
2022-11-16T07:55:03.390Z,944.5
2022-11-16T07:56:05.364Z,944.5
2022-11-16T07:57:07.370Z,944.46
2022-11-16T07:58:09.365Z,944.49
2022-11-16T07:59:11.357Z,944.49
2022-11-16T08:00:13.437Z,944.46
2022-11-16T08:01:15.482Z,944.45
2022-11-16T08:02:17.437Z,944.43
2022-11-16T08:03:24.469Z,944.39
2022-11-16T08:04:21.364Z,944.43
2022-11-16T08:05:24.422Z,944.4
2022-11-16T08:06:27.375Z,944.35
2022-11-16T08:07:29.520Z,944.35
2022-11-16T08:08:31.606Z,944.35
2022-11-16T08:09:33.365Z,944.34
2022-11-16T08:10:35.469Z,944.33
2022-11-16T08:11:37.375Z,944.29
2022-11-16T08:12:39.370Z,944.28
2022-11-16T08:13:41.368Z,944.33
2022-11-16T08:14:43.370Z,944.32
2022-11-16T08:15:45.428Z,944.27
2022-11-16T08:16:47.375Z,944.24
2022-11-16T08:17:49.425Z,944.26
2022-11-16T08:18:51.377Z,944.25
2022-11-16T08:19:54.376Z,944.21
2022-11-16T08:20:56.419Z,944.21
2022-11-16T08:21:58.375Z,944.23
2022-11-16T08:23:00.373Z,944.2
2022-11-16T08:24:02.407Z,944.22
2022-11-16T08:25:04.402Z,944.2
2022-11-16T08:26:06.379Z,944.23
2022-11-16T08:29:35.117Z,944.22
2022-11-16T08:29:35.543Z,944.23
2022-11-16T08:30:20.379Z,944.23
2022-11-16T08:31:22.386Z,944.22
2022-11-16T08:32:24.457Z,944.21
2022-11-16T08:33:27.410Z,944.22
2022-11-16T08:34:29.379Z,944.23
2022-11-16T08:35:31.420Z,944.19
2022-11-16T08:36:33.386Z,944.24
2022-11-16T08:37:35.389Z,944.21
2022-11-16T08:38:37.389Z,944.21
2022-11-16T08:39:39.385Z,944.22
2022-11-16T08:40:41.441Z,944.21
2022-11-16T08:41:43.388Z,944.23
2022-11-16T08:42:45.395Z,944.21
2022-11-16T08:43:47.464Z,944.26
2022-11-16T08:44:50.385Z,944.26
2022-11-16T08:45:52.620Z,944.28
2022-11-16T08:46:55.405Z,944.29
2022-11-16T08:48:03.617Z,944.24
2022-11-16T08:48:59.400Z,944.26
2022-11-16T08:50:01.393Z,944.27
2022-11-16T08:51:17.334Z,944.27
2022-11-16T08:52:05.448Z,944.23
2022-11-16T08:53:07.404Z,944.25
2022-11-16T08:54:36.570Z,944.23
2022-11-16T08:55:36.569Z,944.23
2022-11-16T08:56:36.577Z,944.29
2022-11-16T08:57:36.616Z,944.21
2022-11-16T08:58:36.636Z,944.21
2022-11-16T08:59:36.573Z,944.2
2022-11-16T09:01:09.608Z,944.2
2022-11-16T09:01:36.618Z,944.2
2022-11-16T09:03:42.844Z,944.17
2022-11-16T09:04:44.744Z,944.19
2022-11-16T09:05:46.798Z,944.15
2022-11-16T09:06:48.826Z,944.16
2022-11-16T09:09:15.576Z,944.16
2022-11-16T09:10:36.480Z,944.15
2022-11-16T09:11:36.470Z,944.13
2022-11-16T09:12:36.500Z,944.13
2022-11-16T09:13:36.483Z,944.12
2022-11-16T09:14:36.536Z,944.12
2022-11-16T09:15:36.479Z,944.12
2022-11-16T09:16:36.497Z,944.08
2022-11-16T09:17:36.497Z,944.06
2022-11-16T09:19:40.337Z,944.04
2022-11-16T09:20:18.151Z,944.05
2022-11-16T09:21:20.242Z,944.01
2022-11-16T09:23:22.258Z,944.03
2022-11-16T09:25:11.183Z,943.95
2022-11-16T09:26:13.142Z,943.94
2022-11-16T09:27:16.133Z,943.93
2022-11-16T09:28:18.145Z,943.95
2022-11-16T09:29:20.224Z,944.01
2022-11-16T09:30:22.196Z,944.02
2022-11-16T09:31:24.186Z,944.05
2022-11-16T09:32:26.140Z,944.07
2022-11-16T09:33:28.145Z,944
2022-11-16T09:34:30.147Z,944.01
2022-11-16T09:35:32.231Z,943.97
2022-11-16T09:36:34.149Z,944.08
2022-11-16T09:37:36.137Z,944.22
2022-11-16T09:39:03.323Z,944.24
2022-11-16T09:39:40.147Z,944.15
2022-11-16T09:40:42.183Z,944.08
2022-11-16T09:41:44.159Z,944.09
2022-11-16T09:42:46.155Z,944.09
2022-11-16T09:43:48.739Z,944.13
2022-11-16T09:44:50.160Z,944.09
2022-11-16T09:45:52.171Z,944.11
2022-11-16T09:46:54.167Z,944.12
2022-11-16T09:47:58.149Z,944.2
2022-11-16T09:49:00.188Z,944.23
2022-11-16T09:50:04.087Z,944.17
2022-11-16T09:51:04.219Z,944.05
2022-11-16T09:52:06.168Z,944.04
2022-11-16T09:53:08.160Z,944.13
2022-11-16T09:54:11.205Z,944.18
2022-11-16T09:55:16.051Z,944.15
2022-11-16T09:56:20.670Z,944.11
2022-11-16T09:58:33.792Z,944.07
2022-11-16T10:00:36.695Z,944.15
2022-11-16T10:03:37.710Z,944.16
2022-11-16T10:08:11.358Z,944.16
2022-11-16T10:09:11.271Z,944.2
2022-11-16T10:10:12.329Z,944.22
2022-11-16T10:12:41.997Z,944.21
2022-11-16T10:13:38.007Z,944.2
2022-11-16T10:14:40.045Z,944.22
2022-11-16T10:15:42.012Z,944.18
2022-11-16T10:16:44.013Z,944.21
2022-11-16T10:17:47.020Z,944.17
2022-11-16T10:18:49.005Z,944.15
2022-11-16T10:19:51.045Z,944.15
2022-11-16T10:20:53.018Z,944.16
2022-11-16T10:21:55.016Z,944.16
2022-11-16T10:22:59.172Z,944.15
2022-11-16T10:24:11.310Z,944.22
2022-11-16T10:25:13.666Z,944.21
2022-11-16T10:26:11.283Z,944.19
2022-11-16T10:27:11.294Z,944.21
2022-11-16T10:32:11.330Z,944.17
2022-11-16T10:35:12.480Z,944.12
2022-11-16T10:37:11.319Z,944.16
2022-11-16T10:39:11.348Z,944.11
2022-11-16T10:40:19.913Z,944.13
2022-11-16T10:42:20.074Z,944.08
2022-11-16T10:43:20.327Z,944.1
2022-11-16T10:44:11.275Z,944.1
2022-11-16T10:45:11.305Z,944.09
2022-11-16T10:46:11.303Z,944.1
2022-11-16T10:47:11.301Z,944.11
2022-11-16T10:50:22.588Z,944.09
2022-11-16T10:52:11.322Z,944.08
2022-11-16T10:54:11.454Z,944.06
2022-11-16T10:56:24.244Z,944.04
2022-11-16T10:59:36.355Z,944.05
2022-11-16T11:01:51.820Z,944.04
2022-11-16T11:02:11.353Z,944.04
2022-11-16T11:03:11.312Z,944.02
2022-11-16T11:04:11.313Z,944.03
2022-11-16T11:05:11.320Z,943.99
2022-11-16T11:06:11.325Z,943.98
2022-11-16T11:07:11.450Z,943.98
2022-11-16T11:08:11.307Z,943.98
2022-11-16T11:09:41.411Z,943.94
2022-11-16T11:12:45.129Z,943.94
2022-11-16T11:13:48.110Z,943.94
2022-11-16T11:14:50.111Z,943.95
2022-11-16T11:15:52.106Z,943.93
2022-11-16T11:16:54.148Z,943.92
2022-11-16T11:17:57.110Z,943.87
2022-11-16T11:21:11.391Z,943.88
2022-11-16T11:24:42.855Z,943.87
2022-11-16T11:25:14.153Z,943.85
2022-11-16T11:27:19.299Z,943.85
2022-11-16T11:28:21.118Z,943.83
2022-11-16T11:30:25.126Z,943.79
2022-11-16T11:31:29.648Z,943.83
2022-11-16T11:32:29.164Z,943.83
2022-11-16T11:33:31.355Z,943.79
2022-11-16T11:37:12.611Z,943.84
2022-11-16T11:37:13.118Z,943.8
2022-11-16T11:38:11.377Z,943.77
2022-11-16T11:39:11.421Z,943.77
2022-11-16T11:40:11.354Z,943.79
2022-11-16T11:41:11.367Z,943.81
2022-11-16T11:42:11.342Z,943.8
2022-11-16T11:44:11.377Z,943.82
2022-11-16T11:46:11.339Z,943.81
2022-11-16T11:47:55.423Z,943.83
2022-11-16T11:48:11.342Z,943.85
2022-11-16T11:53:02.981Z,943.81
2022-11-16T11:53:11.351Z,943.83
2022-11-16T11:55:11.338Z,943.87
2022-11-16T11:56:11.388Z,943.87
2022-11-16T11:57:11.353Z,943.88
2022-11-16T11:58:11.384Z,943.87
2022-11-16T11:59:52.708Z,943.88
2022-11-16T12:00:55.719Z,943.84
2022-11-16T12:01:57.720Z,943.83
2022-11-16T12:03:00.792Z,943.84
2022-11-16T12:04:15.346Z,943.81
2022-11-16T12:05:11.268Z,943.82
2022-11-16T12:06:11.249Z,943.81
2022-11-16T12:08:11.294Z,943.82
2022-11-16T12:09:11.263Z,943.84
2022-11-16T12:10:22.252Z,943.79
2022-11-16T12:11:31.509Z,943.76
2022-11-16T12:14:16.872Z,943.76
2022-11-16T12:15:42.388Z,943.8
2022-11-16T12:16:17.170Z,943.72
2022-11-16T12:17:01.119Z,943.75
2022-11-16T12:18:43.127Z,943.79
2022-11-16T12:19:07.081Z,943.77
2022-11-16T12:20:09.139Z,943.71
2022-11-16T12:22:14.168Z,943.73
2022-11-16T12:23:17.094Z,943.72
2022-11-16T12:26:23.171Z,943.69
2022-11-16T12:27:25.091Z,943.67
2022-11-16T12:29:11.398Z,943.65
2022-11-16T12:30:11.409Z,943.68
2022-11-16T12:31:11.384Z,943.68
2022-11-16T12:32:11.374Z,943.66
2022-11-16T12:33:11.370Z,943.68
2022-11-16T12:35:11.415Z,943.6
2022-11-16T12:36:11.372Z,943.6
2022-11-16T12:37:13.242Z,943.57
2022-11-16T12:38:11.424Z,943.53
2022-11-16T12:39:54.095Z,943.53
2022-11-16T12:40:57.144Z,943.56
2022-11-16T12:43:01.101Z,943.54
2022-11-16T12:44:04.105Z,943.49
2022-11-16T12:45:06.104Z,943.55
2022-11-16T12:47:11.434Z,943.56
2022-11-16T12:49:16.156Z,943.54
2022-11-16T12:50:18.089Z,943.54
2022-11-16T12:52:11.380Z,943.55
2022-11-16T12:53:11.372Z,943.52
2022-11-16T12:54:27.140Z,943.54
2022-11-16T12:57:11.589Z,943.55
2022-11-16T12:58:11.389Z,943.52
2022-11-16T13:00:11.492Z,943.51
2022-11-16T13:03:22.560Z,943.5
2022-11-16T13:04:52.356Z,943.47
2022-11-16T13:05:51.560Z,943.49
2022-11-16T13:06:53.634Z,943.49
2022-11-16T13:07:56.550Z,943.48
2022-11-16T13:08:58.754Z,943.45
2022-11-16T13:10:00.559Z,943.5
2022-11-16T13:12:04.654Z,943.48
2022-11-16T13:13:34.860Z,943.49
2022-11-16T13:14:08.666Z,943.49
2022-11-16T13:15:10.651Z,943.49
2022-11-16T13:16:12.666Z,943.51
2022-11-16T13:18:30.503Z,943.51
2022-11-16T13:20:21.675Z,943.48
2022-11-16T13:21:23.658Z,943.49
2022-11-16T13:22:25.669Z,943.48
2022-11-16T13:23:27.666Z,943.46
2022-11-16T13:26:11.354Z,943.47
2022-11-16T13:27:36.263Z,943.46
2022-11-16T13:28:38.546Z,943.44
2022-11-16T13:29:40.345Z,943.42
2022-11-16T13:31:44.316Z,943.43
2022-11-16T13:32:47.285Z,943.42
2022-11-16T13:34:51.312Z,943.43
2022-11-16T13:35:54.363Z,943.4
2022-11-16T13:36:56.267Z,943.4
2022-11-16T13:40:42.064Z,943.41
2022-11-16T13:42:08.598Z,943.4
2022-11-16T13:43:12.364Z,943.36
2022-11-16T13:44:12.552Z,943.4
2022-11-16T13:46:00.650Z,943.34
2022-11-16T13:47:11.414Z,943.39
2022-11-16T13:48:11.472Z,943.4
2022-11-16T13:49:11.434Z,943.39
2022-11-16T13:50:11.464Z,943.41
2022-11-16T13:51:29.167Z,943.39
2022-11-16T13:54:37.935Z,943.41
2022-11-16T13:54:45.731Z,943.4
2022-11-16T13:56:40.166Z,943.35
2022-11-16T13:57:42.181Z,943.36
2022-11-16T13:58:44.180Z,943.34
2022-11-16T14:00:00.492Z,943.35
2022-11-16T14:01:53.241Z,943.33
2022-11-16T14:03:01.479Z,943.31
2022-11-16T14:06:02.244Z,943.35
2022-11-16T14:07:04.225Z,943.33
2022-11-16T14:09:09.190Z,943.28
2022-11-16T14:10:11.199Z,943.3
2022-11-16T14:11:13.226Z,943.27
2022-11-16T14:12:15.199Z,943.28
2022-11-16T14:15:53.347Z,943.26
2022-11-16T14:16:11.336Z,943.27
2022-11-16T14:17:11.358Z,943.25
2022-11-16T14:19:11.368Z,943.23
2022-11-16T14:20:11.337Z,943.25
2022-11-16T14:22:17.561Z,943.23
2022-11-16T14:24:44.833Z,943.18
2022-11-16T14:25:47.067Z,943.19
2022-11-16T14:26:48.821Z,943.18
2022-11-16T14:29:09.540Z,943.13
2022-11-16T14:30:11.513Z,943.11
2022-11-16T14:32:42.685Z,943.06
2022-11-16T14:33:43.965Z,943.09
2022-11-16T14:34:46.182Z,943.06
2022-11-16T14:35:48.976Z,943.07
2022-11-16T14:36:50.986Z,943.06
2022-11-16T14:37:53.972Z,943.03
2022-11-16T14:38:55.975Z,943.03
2022-11-16T14:40:10.024Z,943.05
2022-11-16T14:41:11.857Z,943.02
2022-11-16T14:42:13.832Z,943.02
2022-11-16T14:43:17.220Z,943.01
2022-11-16T14:44:18.114Z,943.01
2022-11-16T14:46:22.153Z,943
2022-11-16T14:47:25.564Z,942.95
2022-11-16T14:48:27.110Z,942.97
2022-11-16T14:49:29.486Z,942.96
2022-11-16T14:50:31.167Z,942.95
2022-11-16T14:52:31.376Z,942.92
2022-11-16T14:52:35.719Z,942.95
2022-11-16T14:53:38.871Z,942.94
2022-11-16T14:54:40.718Z,942.99
2022-11-16T14:55:42.719Z,942.95
2022-11-16T14:56:44.729Z,942.98
2022-11-16T14:57:46.718Z,942.98
2022-11-16T14:58:48.778Z,942.98
2022-11-16T14:59:56.158Z,943
2022-11-16T15:00:54.339Z,943.01
2022-11-16T15:01:56.332Z,943
2022-11-16T15:03:02.595Z,943.02
2022-11-16T15:04:00.400Z,943.04
2022-11-16T15:05:02.364Z,943.01
2022-11-16T15:06:04.337Z,943.01
2022-11-16T15:07:06.441Z,943.02
2022-11-16T15:08:08.352Z,943
2022-11-16T15:09:10.353Z,942.97
2022-11-16T15:10:12.392Z,942.96
2022-11-16T15:11:15.390Z,942.92
2022-11-16T15:12:17.346Z,942.92
2022-11-16T15:13:19.346Z,942.93
2022-11-16T15:14:21.354Z,942.93
2022-11-16T15:15:23.349Z,942.94
2022-11-16T15:16:25.399Z,942.94
2022-11-16T15:17:31.837Z,942.94
2022-11-16T15:18:29.351Z,942.92
2022-11-16T15:19:31.352Z,942.91
2022-11-16T15:20:34.382Z,942.91
2022-11-16T15:21:37.441Z,942.96
2022-11-16T15:22:39.363Z,942.94
2022-11-16T15:23:41.363Z,942.95
2022-11-16T15:24:43.348Z,942.92
2022-11-16T15:25:45.354Z,942.93
2022-11-16T15:26:47.406Z,942.91
2022-11-16T15:27:50.345Z,942.9
2022-11-16T15:28:52.350Z,942.91
2022-11-16T15:29:54.347Z,942.95
2022-11-16T15:30:56.362Z,942.93
2022-11-16T15:31:58.413Z,942.91
2022-11-16T15:33:00.350Z,942.89
2022-11-16T15:34:02.362Z,942.9
2022-11-16T15:35:05.623Z,942.89
2022-11-16T15:36:06.353Z,942.9
2022-11-16T15:37:08.573Z,942.88
2022-11-16T15:38:10.350Z,942.91
2022-11-16T15:39:13.366Z,942.89
2022-11-16T15:40:16.703Z,942.91
2022-11-16T15:41:17.367Z,942.87
2022-11-16T15:42:19.416Z,942.85
2022-11-16T15:43:21.354Z,942.87
2022-11-16T15:44:23.374Z,942.91
2022-11-16T15:45:25.360Z,942.92
2022-11-16T15:46:27.365Z,942.92
2022-11-16T15:47:29.389Z,942.92